CFS4204 KRDD-KSMF
Flight info
| Callsign | CFS4204 |
|---|---|
| Flight time | 0h 48m |
| Altitude | 6000 |
| Route | RBL V23 GRIME EYPOF |
| Aircraft | C208/L-SDFGR/C |
Departure
| Time | 2026-05-03 20:22 |
|---|---|
| Airport | Redding Municipal Airport (KRDD) |
Arrival
| Time | 2026-05-03 21:11 |
|---|---|
| Airport | Sacramento International Airport (KSMF) |
| Time | Latitude | Longitude | Altitude | Speed | Heading |
|---|---|---|---|---|---|
| 2026-05-03 20:15 | 40.50438 | -122.29824 | 502 ft | 11 kts | 353° |
| 2026-05-03 20:15 | 40.50516 | -122.29834 | 502 ft | 10 kts | 354° |
| 2026-05-03 20:15 | 40.50588 | -122.29844 | 502 ft | 11 kts | 354° |
| 2026-05-03 20:15 | 40.50660 | -122.29854 | 502 ft | 12 kts | 354° |
| 2026-05-03 20:16 | 40.50743 | -122.29846 | 502 ft | 11 kts | 39° |
| 2026-05-03 20:16 | 40.50801 | -122.29771 | 502 ft | 13 kts | 46° |
| 2026-05-03 20:16 | 40.50859 | -122.29693 | 502 ft | 11 kts | 45° |
| 2026-05-03 20:16 | 40.50921 | -122.29633 | 503 ft | 11 kts | 7° |
| 2026-05-03 20:17 | 40.51007 | -122.29631 | 503 ft | 13 kts | 0° |
| 2026-05-03 20:17 | 40.51119 | -122.29631 | 501 ft | 18 kts | 0° |
| 2026-05-03 20:17 | 40.51236 | -122.29631 | 502 ft | 16 kts | 0° |
| 2026-05-03 20:17 | 40.51345 | -122.29631 | 502 ft | 16 kts | 1° |
| 2026-05-03 20:18 | 40.51460 | -122.29630 | 502 ft | 16 kts | 360° |
| 2026-05-03 20:18 | 40.51560 | -122.29631 | 502 ft | 15 kts | 360° |
| 2026-05-03 20:18 | 40.51673 | -122.29629 | 502 ft | 17 kts | 0° |
| 2026-05-03 20:18 | 40.51791 | -122.29629 | 502 ft | 14 kts | 0° |
| 2026-05-03 20:19 | 40.51877 | -122.29628 | 502 ft | 11 kts | 360° |
| 2026-05-03 20:19 | 40.51942 | -122.29628 | 502 ft | 9 kts | 0° |
| 2026-05-03 20:19 | 40.52000 | -122.29627 | 502 ft | 6 kts | 13° |
| 2026-05-03 20:19 | 40.52025 | -122.29576 | 503 ft | 10 kts | 88° |
| 2026-05-03 20:20 | 40.52020 | -122.29498 | 502 ft | 7 kts | 125° |
| 2026-05-03 20:20 | 40.51989 | -122.29485 | 502 ft | 0 kts | 181° |
| 2026-05-03 20:21 | 40.51979 | -122.29486 | 502 ft | 10 kts | 180° |
| 2026-05-03 20:21 | 40.51760 | -122.29486 | 502 ft | 52 kts | 180° |
| 2026-05-03 20:21 | 40.51284 | -122.29484 | 527 ft | 79 kts | 178° |
| 2026-05-03 20:22 | 40.50719 | -122.29456 | 683 ft | 81 kts | 179° |
| 2026-05-03 20:22 | 40.50157 | -122.29469 | 879 ft | 82 kts | 175° |
| 2026-05-03 20:22 | 40.49570 | -122.29390 | 1057 ft | 85 kts | 173° |
| 2026-05-03 20:22 | 40.48983 | -122.29377 | 1172 ft | 90 kts | 176° |
| 2026-05-03 20:23 | 40.48310 | -122.29310 | 1258 ft | 102 kts | 172° |
| 2026-05-03 20:23 | 40.47590 | -122.29189 | 1468 ft | 106 kts | 175° |
| 2026-05-03 20:23 | 40.46840 | -122.29138 | 1695 ft | 108 kts | 175° |
| 2026-05-03 20:23 | 40.46094 | -122.29078 | 1928 ft | 107 kts | 175° |
| 2026-05-03 20:24 | 40.45358 | -122.29015 | 2174 ft | 105 kts | 175° |
| 2026-05-03 20:24 | 40.44630 | -122.28946 | 2416 ft | 104 kts | 175° |
| 2026-05-03 20:24 | 40.43913 | -122.28884 | 2657 ft | 102 kts | 175° |
| 2026-05-03 20:24 | 40.43221 | -122.28765 | 2893 ft | 99 kts | 172° |
| 2026-05-03 20:25 | 40.42529 | -122.28647 | 3090 ft | 101 kts | 173° |
| 2026-05-03 20:25 | 40.41829 | -122.28532 | 3257 ft | 103 kts | 174° |
| 2026-05-03 20:25 | 40.41090 | -122.28416 | 3391 ft | 110 kts | 174° |
| 2026-05-03 20:25 | 40.40310 | -122.28295 | 3533 ft | 116 kts | 174° |
| 2026-05-03 20:26 | 40.39487 | -122.28169 | 3681 ft | 123 kts | 174° |
| 2026-05-03 20:26 | 40.38618 | -122.28038 | 3834 ft | 128 kts | 174° |
| 2026-05-03 20:26 | 40.37726 | -122.27903 | 4026 ft | 131 kts | 173° |
| 2026-05-03 20:26 | 40.36830 | -122.27762 | 4237 ft | 127 kts | 174° |
| 2026-05-03 20:27 | 40.35970 | -122.27627 | 4459 ft | 123 kts | 173° |
| 2026-05-03 20:27 | 40.35128 | -122.27494 | 4681 ft | 121 kts | 174° |
| 2026-05-03 20:27 | 40.34300 | -122.27364 | 4886 ft | 119 kts | 174° |
| 2026-05-03 20:27 | 40.33485 | -122.27240 | 5100 ft | 117 kts | 173° |
| 2026-05-03 20:28 | 40.32685 | -122.27118 | 5311 ft | 115 kts | 172° |
| 2026-05-03 20:28 | 40.31903 | -122.26996 | 5542 ft | 112 kts | 171° |
| 2026-05-03 20:28 | 40.31151 | -122.26879 | 5754 ft | 109 kts | 171° |
| 2026-05-03 20:28 | 40.30413 | -122.26766 | 5963 ft | 106 kts | 169° |
| 2026-05-03 20:29 | 40.29649 | -122.26645 | 6020 ft | 118 kts | 169° |
| 2026-05-03 20:29 | 40.28794 | -122.26516 | 6034 ft | 130 kts | 171° |
| 2026-05-03 20:29 | 40.27856 | -122.26381 | 6036 ft | 140 kts | 171° |
| 2026-05-03 20:29 | 40.26859 | -122.26224 | 6035 ft | 148 kts | 171° |
| 2026-05-03 20:30 | 40.25816 | -122.26064 | 6035 ft | 153 kts | 171° |
| 2026-05-03 20:30 | 40.24744 | -122.25900 | 6038 ft | 157 kts | 171° |
| 2026-05-03 20:30 | 40.23661 | -122.25734 | 6038 ft | 157 kts | 171° |
| 2026-05-03 20:30 | 40.22576 | -122.25569 | 6038 ft | 157 kts | 171° |
| 2026-05-03 20:31 | 40.21493 | -122.25402 | 6037 ft | 157 kts | 171° |
| 2026-05-03 20:31 | 40.20410 | -122.25237 | 6037 ft | 157 kts | 171° |
| 2026-05-03 20:31 | 40.19326 | -122.25069 | 6036 ft | 157 kts | 171° |
| 2026-05-03 20:31 | 40.18245 | -122.24904 | 6036 ft | 156 kts | 171° |
| 2026-05-03 20:32 | 40.17528 | -122.24793 | 6035 ft | 157 kts | 171° |
| 2026-05-03 20:32 | 40.16078 | -122.24568 | 6007 ft | 158 kts | 171° |
| 2026-05-03 20:32 | 40.15353 | -122.24458 | 6006 ft | 158 kts | 171° |
| 2026-05-03 20:32 | 40.14266 | -122.24293 | 6004 ft | 157 kts | 172° |
| 2026-05-03 20:33 | 40.13183 | -122.24126 | 6005 ft | 157 kts | 171° |
| 2026-05-03 20:33 | 40.12101 | -122.23959 | 6005 ft | 157 kts | 171° |
| 2026-05-03 20:33 | 40.11018 | -122.23795 | 6006 ft | 157 kts | 171° |
| 2026-05-03 20:33 | 40.09939 | -122.23616 | 6004 ft | 156 kts | 167° |
| 2026-05-03 20:34 | 40.08935 | -122.23122 | 6006 ft | 154 kts | 155° |
| 2026-05-03 20:34 | 40.07941 | -122.22590 | 6003 ft | 154 kts | 156° |
| 2026-05-03 20:34 | 40.06944 | -122.22068 | 6006 ft | 155 kts | 156° |
| 2026-05-03 20:34 | 40.05943 | -122.21544 | 6005 ft | 155 kts | 156° |
| 2026-05-03 20:35 | 40.04941 | -122.21020 | 6005 ft | 155 kts | 156° |
| 2026-05-03 20:35 | 40.03941 | -122.20493 | 6004 ft | 155 kts | 156° |
| 2026-05-03 20:35 | 40.02941 | -122.19969 | 6001 ft | 155 kts | 156° |
| 2026-05-03 20:35 | 40.01941 | -122.19445 | 6000 ft | 155 kts | 156° |
| 2026-05-03 20:36 | 40.00942 | -122.18919 | 6003 ft | 155 kts | 156° |
| 2026-05-03 20:36 | 39.99943 | -122.18394 | 5999 ft | 155 kts | 156° |
| 2026-05-03 20:36 | 39.98943 | -122.17872 | 6000 ft | 155 kts | 156° |
| 2026-05-03 20:36 | 39.97945 | -122.17347 | 5999 ft | 155 kts | 156° |
| 2026-05-03 20:37 | 39.96944 | -122.16823 | 5999 ft | 155 kts | 156° |
| 2026-05-03 20:37 | 39.95943 | -122.16300 | 5996 ft | 155 kts | 156° |
| 2026-05-03 20:37 | 39.94944 | -122.15776 | 5993 ft | 155 kts | 156° |
| 2026-05-03 20:37 | 39.93944 | -122.15253 | 5996 ft | 155 kts | 156° |
| 2026-05-03 20:38 | 39.92944 | -122.14729 | 5992 ft | 155 kts | 156° |
| 2026-05-03 20:38 | 39.91945 | -122.14205 | 5995 ft | 155 kts | 156° |
| 2026-05-03 20:38 | 39.90943 | -122.13682 | 6002 ft | 155 kts | 156° |
| 2026-05-03 20:38 | 39.89940 | -122.13157 | 6003 ft | 156 kts | 156° |
| 2026-05-03 20:39 | 39.88935 | -122.12634 | 6005 ft | 156 kts | 156° |
| 2026-05-03 20:39 | 39.87929 | -122.12105 | 6007 ft | 156 kts | 156° |
| 2026-05-03 20:39 | 39.86923 | -122.11582 | 6006 ft | 156 kts | 156° |
| 2026-05-03 20:39 | 39.85920 | -122.11057 | 6010 ft | 156 kts | 156° |
| 2026-05-03 20:40 | 39.84917 | -122.10534 | 6008 ft | 155 kts | 156° |
| 2026-05-03 20:40 | 39.83914 | -122.10009 | 6011 ft | 156 kts | 156° |
| 2026-05-03 20:40 | 39.82906 | -122.09483 | 6011 ft | 157 kts | 156° |
| 2026-05-03 20:40 | 39.81892 | -122.08955 | 6009 ft | 157 kts | 156° |
| 2026-05-03 20:41 | 39.80876 | -122.08428 | 6018 ft | 158 kts | 156° |
| 2026-05-03 20:41 | 39.79854 | -122.07893 | 6013 ft | 158 kts | 156° |
| 2026-05-03 20:41 | 39.78833 | -122.07362 | 6017 ft | 158 kts | 156° |
| 2026-05-03 20:41 | 39.77816 | -122.06830 | 6020 ft | 158 kts | 156° |
| 2026-05-03 20:42 | 39.76794 | -122.06301 | 6017 ft | 158 kts | 156° |
| 2026-05-03 20:42 | 39.75778 | -122.05773 | 6019 ft | 157 kts | 156° |
| 2026-05-03 20:42 | 39.74763 | -122.05244 | 6017 ft | 157 kts | 156° |
| 2026-05-03 20:42 | 39.73750 | -122.04717 | 6014 ft | 157 kts | 156° |
| 2026-05-03 20:43 | 39.72734 | -122.04187 | 6013 ft | 159 kts | 156° |
| 2026-05-03 20:43 | 39.71705 | -122.03653 | 6017 ft | 160 kts | 156° |
| 2026-05-03 20:43 | 39.70690 | -122.03126 | 6020 ft | 159 kts | 156° |
| 2026-05-03 20:43 | 39.69654 | -122.02587 | 6017 ft | 158 kts | 156° |
| 2026-05-03 20:44 | 39.68634 | -122.02056 | 6015 ft | 158 kts | 156° |
| 2026-05-03 20:44 | 39.67632 | -122.01536 | 6012 ft | 157 kts | 156° |
| 2026-05-03 20:44 | 39.66620 | -122.01012 | 6014 ft | 156 kts | 156° |
| 2026-05-03 20:44 | 39.65608 | -122.00488 | 6010 ft | 157 kts | 156° |
| 2026-05-03 20:45 | 39.64596 | -121.99961 | 6009 ft | 157 kts | 156° |
| 2026-05-03 20:45 | 39.63584 | -121.99434 | 6010 ft | 157 kts | 156° |
| 2026-05-03 20:45 | 39.62573 | -121.98913 | 6009 ft | 156 kts | 156° |
| 2026-05-03 20:45 | 39.61566 | -121.98391 | 6011 ft | 156 kts | 156° |
| 2026-05-03 20:46 | 39.60557 | -121.97868 | 6008 ft | 156 kts | 156° |
| 2026-05-03 20:46 | 39.59547 | -121.97344 | 6008 ft | 156 kts | 156° |
| 2026-05-03 20:46 | 39.58539 | -121.96822 | 6007 ft | 156 kts | 156° |
| 2026-05-03 20:46 | 39.57534 | -121.96301 | 6006 ft | 156 kts | 156° |
| 2026-05-03 20:47 | 39.56527 | -121.95780 | 6008 ft | 156 kts | 156° |
| 2026-05-03 20:47 | 39.55518 | -121.95258 | 6006 ft | 156 kts | 156° |
| 2026-05-03 20:47 | 39.54507 | -121.94736 | 6007 ft | 156 kts | 156° |
| 2026-05-03 20:47 | 39.53496 | -121.94215 | 6005 ft | 156 kts | 156° |
| 2026-05-03 20:48 | 39.52488 | -121.93692 | 6006 ft | 156 kts | 156° |
| 2026-05-03 20:48 | 39.51477 | -121.93169 | 6010 ft | 156 kts | 156° |
| 2026-05-03 20:48 | 39.50465 | -121.92648 | 6008 ft | 157 kts | 156° |
| 2026-05-03 20:48 | 39.49451 | -121.92126 | 6010 ft | 157 kts | 156° |
| 2026-05-03 20:49 | 39.48440 | -121.91602 | 6011 ft | 157 kts | 156° |
| 2026-05-03 20:49 | 39.47425 | -121.91077 | 6009 ft | 157 kts | 156° |
| 2026-05-03 20:49 | 39.46412 | -121.90557 | 6010 ft | 156 kts | 156° |
| 2026-05-03 20:49 | 39.45401 | -121.90034 | 6013 ft | 157 kts | 156° |
| 2026-05-03 20:50 | 39.44387 | -121.89513 | 6010 ft | 157 kts | 156° |
| 2026-05-03 20:50 | 39.43376 | -121.88991 | 6011 ft | 156 kts | 156° |
| 2026-05-03 20:50 | 39.42366 | -121.88471 | 6011 ft | 156 kts | 156° |
| 2026-05-03 20:50 | 39.41354 | -121.87951 | 6014 ft | 156 kts | 156° |
| 2026-05-03 20:51 | 39.40342 | -121.87430 | 6013 ft | 157 kts | 156° |
| 2026-05-03 20:51 | 39.39331 | -121.86911 | 6013 ft | 156 kts | 156° |
| 2026-05-03 20:51 | 39.38323 | -121.86393 | 6011 ft | 156 kts | 156° |
| 2026-05-03 20:51 | 39.37319 | -121.85877 | 6008 ft | 155 kts | 156° |
| 2026-05-03 20:52 | 39.36318 | -121.85360 | 6009 ft | 155 kts | 157° |
| 2026-05-03 20:52 | 39.35314 | -121.84849 | 6012 ft | 155 kts | 156° |
| 2026-05-03 20:52 | 39.34311 | -121.84335 | 6012 ft | 155 kts | 156° |
| 2026-05-03 20:52 | 39.33309 | -121.83819 | 6009 ft | 155 kts | 156° |
| 2026-05-03 20:53 | 39.32289 | -121.83364 | 6008 ft | 156 kts | 164° |
| 2026-05-03 20:53 | 39.31237 | -121.83040 | 6007 ft | 155 kts | 164° |
| 2026-05-03 20:53 | 39.30190 | -121.82699 | 6010 ft | 155 kts | 164° |
| 2026-05-03 20:53 | 39.29144 | -121.82358 | 6006 ft | 155 kts | 164° |
| 2026-05-03 20:54 | 39.28099 | -121.82018 | 6006 ft | 155 kts | 164° |
| 2026-05-03 20:54 | 39.26026 | -121.81348 | 6005 ft | 155 kts | 164° |
| 2026-05-03 20:54 | 39.24981 | -121.81007 | 6005 ft | 155 kts | 164° |
| 2026-05-03 20:55 | 39.23936 | -121.80669 | 6005 ft | 155 kts | 164° |
| 2026-05-03 20:55 | 39.22892 | -121.80327 | 6003 ft | 155 kts | 164° |
| 2026-05-03 20:55 | 39.21849 | -121.79989 | 6004 ft | 155 kts | 164° |
| 2026-05-03 20:55 | 39.20809 | -121.79653 | 6003 ft | 154 kts | 164° |
| 2026-05-03 20:56 | 39.19770 | -121.79317 | 6004 ft | 154 kts | 164° |
| 2026-05-03 20:56 | 39.18728 | -121.78979 | 6007 ft | 154 kts | 164° |
| 2026-05-03 20:56 | 39.17687 | -121.78640 | 6005 ft | 154 kts | 165° |
| 2026-05-03 20:56 | 39.16648 | -121.78304 | 6004 ft | 154 kts | 164° |
| 2026-05-03 20:57 | 39.15611 | -121.77967 | 6005 ft | 154 kts | 164° |
| 2026-05-03 20:57 | 39.14573 | -121.77630 | 6008 ft | 154 kts | 164° |
| 2026-05-03 20:57 | 39.13537 | -121.77296 | 6007 ft | 153 kts | 164° |
| 2026-05-03 20:57 | 39.12502 | -121.76964 | 6003 ft | 153 kts | 164° |
| 2026-05-03 20:58 | 39.11470 | -121.76628 | 6006 ft | 153 kts | 164° |
| 2026-05-03 20:58 | 39.10435 | -121.76292 | 6007 ft | 153 kts | 164° |
| 2026-05-03 20:58 | 39.09401 | -121.75964 | 6010 ft | 153 kts | 164° |
| 2026-05-03 20:58 | 39.08363 | -121.75628 | 6011 ft | 155 kts | 164° |
| 2026-05-03 20:59 | 39.07300 | -121.75279 | 5892 ft | 163 kts | 165° |
| 2026-05-03 20:59 | 39.06246 | -121.74951 | 5678 ft | 147 kts | 165° |
| 2026-05-03 20:59 | 39.05272 | -121.74635 | 5456 ft | 143 kts | 164° |
| 2026-05-03 20:59 | 39.04318 | -121.74324 | 5255 ft | 141 kts | 165° |
| 2026-05-03 21:00 | 39.03372 | -121.74018 | 5041 ft | 140 kts | 165° |
| 2026-05-03 21:00 | 39.02749 | -121.73817 | 4910 ft | 139 kts | 165° |
| 2026-05-03 21:00 | 39.01505 | -121.73416 | 4641 ft | 137 kts | 165° |
| 2026-05-03 21:00 | 39.00577 | -121.73117 | 4435 ft | 137 kts | 165° |
| 2026-05-03 21:01 | 38.99649 | -121.72816 | 4231 ft | 138 kts | 164° |
| 2026-05-03 21:01 | 38.98716 | -121.72516 | 4025 ft | 138 kts | 165° |
| 2026-05-03 21:01 | 38.97784 | -121.72215 | 3827 ft | 138 kts | 165° |
| 2026-05-03 21:01 | 38.96848 | -121.71913 | 3630 ft | 139 kts | 164° |
| 2026-05-03 21:02 | 38.95909 | -121.71609 | 3436 ft | 139 kts | 165° |
| 2026-05-03 21:02 | 38.94976 | -121.71310 | 3266 ft | 138 kts | 164° |
| 2026-05-03 21:02 | 38.94044 | -121.71009 | 3086 ft | 138 kts | 165° |
| 2026-05-03 21:02 | 38.93120 | -121.70711 | 2891 ft | 139 kts | 165° |
| 2026-05-03 21:03 | 38.92181 | -121.70409 | 2693 ft | 139 kts | 165° |
| 2026-05-03 21:03 | 38.91229 | -121.70103 | 2495 ft | 138 kts | 166° |
| 2026-05-03 21:03 | 38.90310 | -121.69807 | 2290 ft | 134 kts | 166° |
| 2026-05-03 21:03 | 38.89429 | -121.69526 | 2077 ft | 131 kts | 165° |
| 2026-05-03 21:04 | 38.88555 | -121.69244 | 1872 ft | 129 kts | 166° |
| 2026-05-03 21:04 | 38.87709 | -121.68972 | 1797 ft | 120 kts | 165° |
| 2026-05-03 21:04 | 38.86935 | -121.68721 | 1785 ft | 109 kts | 165° |
| 2026-05-03 21:04 | 38.86254 | -121.68375 | 1787 ft | 102 kts | 155° |
| 2026-05-03 21:05 | 38.85610 | -121.68011 | 1793 ft | 103 kts | 156° |
| 2026-05-03 21:05 | 38.84946 | -121.67642 | 1793 ft | 104 kts | 157° |
| 2026-05-03 21:05 | 38.84289 | -121.67278 | 1790 ft | 101 kts | 158° |
| 2026-05-03 21:05 | 38.83655 | -121.66924 | 1787 ft | 100 kts | 158° |
| 2026-05-03 21:06 | 38.83024 | -121.66572 | 1790 ft | 97 kts | 157° |
| 2026-05-03 21:06 | 38.82427 | -121.66152 | 1752 ft | 100 kts | 147° |
| 2026-05-03 21:06 | 38.81848 | -121.65608 | 1727 ft | 106 kts | 143° |
| 2026-05-03 21:06 | 38.81269 | -121.64962 | 1690 ft | 116 kts | 137° |
| 2026-05-03 21:07 | 38.80702 | -121.64196 | 1660 ft | 120 kts | 133° |
| 2026-05-03 21:07 | 38.80155 | -121.63368 | 1655 ft | 123 kts | 133° |
| 2026-05-03 21:07 | 38.79593 | -121.62584 | 1626 ft | 116 kts | 137° |
| 2026-05-03 21:07 | 38.78999 | -121.61891 | 1539 ft | 116 kts | 142° |
| 2026-05-03 21:08 | 38.78365 | -121.61233 | 1417 ft | 119 kts | 146° |
| 2026-05-03 21:08 | 38.77667 | -121.60628 | 1267 ft | 122 kts | 150° |
| 2026-05-03 21:08 | 38.76928 | -121.60165 | 1250 ft | 116 kts | 163° |
| 2026-05-03 21:08 | 38.76125 | -121.59975 | 1069 ft | 121 kts | 176° |
| 2026-05-03 21:09 | 38.75303 | -121.60015 | 951 ft | 113 kts | 184° |
| 2026-05-03 21:09 | 38.74557 | -121.60049 | 846 ft | 102 kts | 180° |
| 2026-05-03 21:09 | 38.73899 | -121.60046 | 720 ft | 90 kts | 181° |
| 2026-05-03 21:09 | 38.73291 | -121.60060 | 578 ft | 81 kts | 180° |
| 2026-05-03 21:10 | 38.72793 | -121.60044 | 443 ft | 63 kts | 182° |
| 2026-05-03 21:10 | 38.72389 | -121.60046 | 360 ft | 58 kts | 186° |
| 2026-05-03 21:10 | 38.71974 | -121.60057 | 315 ft | 66 kts | 181° |
| 2026-05-03 21:10 | 38.71500 | -121.60080 | 223 ft | 68 kts | 184° |
| 2026-05-03 21:11 | 38.71039 | -121.60100 | 141 ft | 64 kts | 182° |
| 2026-05-03 21:11 | 38.70604 | -121.60108 | 45 ft | 61 kts | 181° |
| 2026-05-03 21:11 | 38.70225 | -121.60118 | 25 ft | 46 kts | 181° |
| 2026-05-03 21:11 | 38.69960 | -121.60122 | 23 ft | 31 kts | 182° |
| 2026-05-03 21:12 | 38.69770 | -121.60126 | 22 ft | 25 kts | 182° |
| 2026-05-03 21:12 | 38.69603 | -121.60121 | 20 ft | 23 kts | 173° |
| 2026-05-03 21:12 | 38.69458 | -121.60070 | 21 ft | 19 kts | 155° |
| 2026-05-03 21:12 | 38.69355 | -121.59996 | 22 ft | 11 kts | 151° |
| 2026-05-03 21:13 | 38.69281 | -121.59944 | 22 ft | 15 kts | 152° |
| 2026-05-03 21:13 | 38.69215 | -121.59895 | 22 ft | 10 kts | 150° |
| 2026-05-03 21:13 | 38.69127 | -121.59873 | 22 ft | 15 kts | 181° |
| 2026-05-03 21:13 | 38.69058 | -121.59838 | 23 ft | 11 kts | 106° |
| 2026-05-03 21:14 | 38.69056 | -121.59720 | 22 ft | 12 kts | 91° |
| 2026-05-03 21:14 | 38.69015 | -121.59655 | 22 ft | 7 kts | 154° |
| 2026-05-03 21:14 | 38.68993 | -121.59668 | 24 ft | 1 kts | 226° |
| 2026-05-03 21:14 | 38.68991 | -121.59670 | 23 ft | 0 kts | 226° |